Nukus, Uzbekistan
Current Conditions -  °F | °C
As of 8:00 AM on Wednesday 26 Nov 2014 (Local Time) from UTNN Reporting Station
Clear Clear  
Wind Chill:   Ceiling: Unl
Heat Index: 12°   Visibility: 6mi
Dew Point:   Wind: 9mph
Humidity: 62%   Direction: 50°NE
Pressure: 30.48"   Gusts: NA
Location:  42.47°N, 59.61°E
Report Text: UTNN 260300Z 05008KT CAVOK M11/M17 Q1032 R33/CLRD60 NOSIG
Loading
Personal Weather Stations






























Interactive Weather Map New forecast layout! Learn more

10-Day Weather Forecast

Advertisements
Track Severe Weather on mobile